Time;durP1;ratioP1;P1;durP2;ratioP2;P2;SDS_P1;SDS_P2;PMS_P1;PMS_P2;Temp;Humidity;BMP_temperature;BMP_pressure;BME280_temperature;BME280_humidity;BME280_pressure;Samples;Min_cycle;Max_cycle;Signal;HPM_P1;HPM_P2
2022/04/10 00:02:26;;;;;;;0.87;0.80;;;9.90;96.40;;;;;;5029768;28;20455;-47
2022/04/10 00:04:57;;;;;;;1.73;1.00;;;9.80;96.30;;;;;;5025777;28;20467;-46
2022/04/10 00:07:25;;;;;;;0.97;0.60;;;9.80;96.50;;;;;;5033242;28;20435;-47
2022/04/10 00:09:53;;;;;;;0.90;0.80;;;9.80;96.50;;;;;;5025320;28;20982;-46
2022/04/10 00:12:22;;;;;;;1.77;1.00;;;9.80;96.50;;;;;;5032597;28;20838;-47
2022/04/10 00:14:50;;;;;;;2.47;1.20;;;9.80;96.50;;;;;;5031531;28;20545;-46
2022/04/10 00:17:19;;;;;;;2.77;0.80;;;9.80;96.50;;;;;;5028600;28;20440;-48
2022/04/10 00:19:47;;;;;;;1.10;0.90;;;9.80;96.50;;;;;;5032378;28;20466;-46
2022/04/10 00:22:16;;;;;;;1.43;0.83;;;9.80;96.50;;;;;;5033361;28;20427;-45
2022/04/10 00:24:45;;;;;;;1.73;0.90;;;9.80;96.50;;;;;;5015259;28;20532;-46
2022/04/10 00:27:14;;;;;;;1.07;0.97;;;9.80;96.50;;;;;;5019023;28;20475;-46
2022/04/10 00:29:43;;;;;;;2.13;1.00;;;9.80;96.60;;;;;;5031195;28;20494;-47
2022/04/10 00:32:11;;;;;;;1.90;1.50;;;9.80;96.60;;;;;;5028609;28;20447;-45
2022/04/10 00:34:40;;;;;;;1.60;1.20;;;9.80;96.60;;;;;;5030556;28;20499;-46
2022/04/10 00:37:08;;;;;;;1.05;0.73;;;9.80;96.40;;;;;;5017908;28;20434;-46
2022/04/10 00:39:37;;;;;;;3.17;0.90;;;9.80;96.50;;;;;;5016879;28;20324;-45
2022/04/10 00:42:06;;;;;;;1.03;0.93;;;9.80;96.50;;;;;;5019091;28;20455;-46
2022/04/10 00:44:35;;;;;;;1.17;1.07;;;9.80;96.50;;;;;;5032271;28;20460;-45
2022/04/10 00:47:05;;;;;;;1.20;1.10;;;9.80;96.50;;;;;;5032662;28;20507;-45
2022/04/10 00:49:33;;;;;;;1.83;1.10;;;9.80;96.50;;;;;;5015535;28;20232;-46
2022/04/10 00:52:02;;;;;;;1.33;1.00;;;9.80;96.50;;;;;;5031817;28;20438;-48
2022/04/10 00:54:30;;;;;;;1.02;0.95;;;9.80;96.50;;;;;;5022848;28;21045;-46
2022/04/10 00:57:01;;;;;;;2.05;1.00;;;9.80;96.60;;;;;;5031297;28;20353;-45
2022/04/10 00:59:29;;;;;;;1.20;0.90;;;9.80;96.50;;;;;;5031500;28;20238;-45
2022/04/10 01:01:57;;;;;;;1.27;1.17;;;9.80;96.60;;;;;;5018144;28;20893;-46
2022/04/10 01:04:42;;;;;;;1.07;0.97;;;9.80;96.60;;;;;;5005842;28;20523;-47
2022/04/10 01:07:12;;;;;;;1.40;0.93;;;9.80;96.70;;;;;;5026805;28;21006;-47
2022/04/10 01:09:46;;;;;;;2.10;1.03;;;9.80;96.70;;;;;;5010105;28;20463;-48
2022/04/10 01:12:17;;;;;;;0.87;0.87;;;9.70;96.60;;;;;;5030290;28;20440;-45
2022/04/10 01:14:50;;;;;;;1.27;0.80;;;9.80;96.70;;;;;;5027941;28;20466;-48
2022/04/10 01:17:21;;;;;;;1.70;0.90;;;9.80;96.70;;;;;;5027315;28;20846;-48
2022/04/10 01:19:54;;;;;;;2.13;1.13;;;9.80;96.70;;;;;;5007526;28;20845;-47
2022/04/10 01:22:35;;;;;;;1.00;0.90;;;9.80;96.60;;;;;;5010200;28;20432;-46
2022/04/10 01:25:08;;;;;;;1.50;0.80;;;9.70;96.60;;;;;;5010456;28;20492;-47
2022/04/10 01:27:39;;;;;;;1.53;0.90;;;9.70;96.70;;;;;;5029223;28;20443;-46
2022/04/10 01:30:10;;;;;;;1.63;1.10;;;9.70;96.60;;;;;;5010068;28;20840;-48
2022/04/10 01:32:40;;;;;;;1.50;1.30;;;9.70;96.70;;;;;;5006014;28;20550;-46
2022/04/10 01:35:10;;;;;;;1.10;1.00;;;9.70;96.60;;;;;;5022388;28;20487;-46
2022/04/10 01:37:41;;;;;;;1.03;0.97;;;9.70;96.70;;;;;;5073635;23;1175629;-47
2022/04/10 01:40:26;;;;;;;1.10;1.00;;;9.70;96.70;;;;;;5041221;28;20312;-47
2022/04/10 01:42:54;;;;;;;1.67;1.00;;;9.70;96.60;;;;;;5042020;28;20443;-47
2022/04/10 01:45:22;;;;;;;0.90;0.90;;;9.70;96.60;;;;;;5044664;28;20910;-47
2022/04/10 01:47:51;;;;;;;1.37;1.03;;;9.70;96.60;;;;;;5039714;28;20451;-48
2022/04/10 01:50:22;;;;;;;1.20;1.10;;;9.70;96.50;;;;;;5049973;28;20501;-47
2022/04/10 01:52:53;;;;;;;1.60;1.03;;;9.70;96.60;;;;;;5035922;28;20957;-48
2022/04/10 01:55:23;;;;;;;2.10;1.27;;;9.70;96.60;;;;;;5029875;28;20537;-47
2022/04/10 01:57:51;;;;;;;2.63;1.33;;;9.70;96.70;;;;;;5030193;28;20436;-47
2022/04/10 02:00:20;;;;;;;1.37;1.20;;;9.70;96.60;;;;;;5063461;28;20456;-46
2022/04/10 02:02:49;;;;;;;1.83;1.60;;;9.70;96.70;;;;;;5027379;28;20469;-47
2022/04/10 02:05:21;;;;;;;1.30;0.90;;;9.70;96.60;;;;;;5040514;28;20825;-47
2022/04/10 02:07:49;;;;;;;1.70;1.17;;;9.70;96.60;;;;;;5048609;28;20918;-47
2022/04/10 02:10:20;;;;;;;1.53;0.97;;;9.70;96.70;;;;;;5029865;28;20460;-47
2022/04/10 02:12:48;;;;;;;1.30;1.20;;;9.70;96.70;;;;;;5044369;28;20467;-47
2022/04/10 02:15:17;;;;;;;1.57;1.10;;;9.70;96.60;;;;;;5048095;28;20470;-47
2022/04/10 02:17:45;;;;;;;1.83;1.13;;;9.70;96.70;;;;;;5046787;28;20786;-47
2022/04/10 02:20:13;;;;;;;2.00;1.20;;;9.60;96.60;;;;;;5068390;28;20466;-47
2022/04/10 02:22:41;;;;;;;2.03;1.10;;;9.60;96.60;;;;;;5069393;28;20429;-46
2022/04/10 02:25:10;;;;;;;1.73;1.23;;;9.60;96.70;;;;;;5066090;28;20474;-47
2022/04/10 02:27:39;;;;;;;1.20;1.00;;;9.60;96.60;;;;;;5066818;28;20944;-46
2022/04/10 02:30:09;;;;;;;1.30;1.00;;;9.60;96.70;;;;;;5051971;28;20604;-47
2022/04/10 02:32:37;;;;;;;1.80;0.90;;;9.60;96.70;;;;;;5061933;28;20876;-47
2022/04/10 02:35:06;;;;;;;1.93;1.10;;;9.60;96.60;;;;;;5066459;28;21007;-47
2022/04/10 02:37:34;;;;;;;1.50;0.97;;;9.60;96.60;;;;;;5049580;28;20441;-47
2022/04/10 02:40:03;;;;;;;1.00;0.90;;;9.60;96.70;;;;;;5053982;28;20551;-46
2022/04/10 02:42:33;;;;;;;1.53;1.33;;;9.60;96.70;;;;;;5058558;28;20436;-46
2022/04/10 02:45:04;;;;;;;1.33;1.20;;;9.60;96.70;;;;;;5047914;28;20969;-47
2022/04/10 02:47:33;;;;;;;0.83;0.80;;;9.60;96.70;;;;;;5045186;28;20636;-47
2022/04/10 02:50:05;;;;;;;2.00;1.20;;;9.60;96.80;;;;;;5100073;22;20489;-67
2022/04/10 02:52:33;;;;;;;1.07;0.90;;;9.60;96.70;;;;;;5052077;28;20427;-67
2022/04/10 02:55:02;;;;;;;1.47;1.37;;;9.60;96.60;;;;;;5019839;28;20464;-67
2022/04/10 02:57:30;;;;;;;2.20;1.40;;;9.60;96.60;;;;;;5041272;28;20817;-68
2022/04/10 02:59:58;;;;;;;2.70;1.40;;;9.60;96.70;;;;;;5029101;28;20482;-67
2022/04/10 03:02:28;;;;;;;1.20;1.00;;;9.60;96.60;;;;;;5050016;28;20452;-67
2022/04/10 03:04:56;;;;;;;1.90;1.03;;;9.60;96.70;;;;;;5046934;28;20467;-67
2022/04/10 03:07:25;;;;;;;1.30;1.20;;;9.60;96.60;;;;;;5031219;28;20989;-66
2022/04/10 03:09:53;;;;;;;1.42;1.33;;;9.60;96.50;;;;;;5037853;28;20465;-67
2022/04/10 03:12:21;;;;;;;1.30;1.20;;;9.60;96.70;;;;;;5051502;28;20188;-67
2022/04/10 03:14:49;;;;;;;2.10;0.87;;;9.50;96.50;;;;;;5048644;28;20539;-67
2022/04/10 03:17:17;;;;;;;1.73;1.30;;;9.50;96.50;;;;;;5012969;28;20473;-67
2022/04/10 03:19:47;;;;;;;1.20;1.10;;;9.50;96.50;;;;;;5033270;28;20466;-68
2022/04/10 03:22:15;;;;;;;2.57;1.20;;;9.50;96.50;;;;;;5047976;28;20287;-66
2022/04/10 03:24:43;;;;;;;1.00;0.90;;;9.50;96.50;;;;;;5029094;28;20566;-66
2022/04/10 03:27:13;;;;;;;1.50;1.40;;;9.50;96.60;;;;;;5049354;28;20427;-67
2022/04/10 03:29:42;;;;;;;1.60;1.20;;;9.50;96.50;;;;;;5047956;28;20471;-67
2022/04/10 03:32:10;;;;;;;1.87;1.00;;;9.50;96.50;;;;;;5053973;28;20435;-66
2022/04/10 03:34:40;;;;;;;0.90;0.87;;;9.50;96.50;;;;;;5033547;28;20508;-66
2022/04/10 03:37:10;;;;;;;1.33;1.10;;;9.50;96.70;;;;;;5034010;28;20479;-66
2022/04/10 03:39:38;;;;;;;1.30;0.93;;;9.50;96.30;;;;;;5020708;28;20740;-67
2022/04/10 03:42:08;;;;;;;1.30;1.20;;;9.50;96.40;;;;;;5049145;28;20193;-67
2022/04/10 03:44:37;;;;;;;2.10;1.40;;;9.50;96.50;;;;;;5033689;28;20503;-67
2022/04/10 03:47:06;;;;;;;1.93;1.70;;;9.50;96.40;;;;;;5034507;28;20423;-66
2022/04/10 03:49:34;;;;;;;1.20;1.10;;;9.50;96.60;;;;;;5037913;28;20886;-67
2022/04/10 03:52:06;;;;;;;1.27;1.00;;;9.50;96.60;;;;;;5040477;28;20436;-67
2022/04/10 03:54:35;;;;;;;1.40;1.00;;;9.50;96.60;;;;;;5035215;28;20479;-67
2022/04/10 03:57:04;;;;;;;1.37;1.10;;;9.50;96.80;;;;;;5041491;28;20833;-67
2022/04/10 03:59:33;;;;;;;1.27;1.13;;;9.50;96.60;;;;;;5035753;28;20460;-67
2022/04/10 04:02:02;;;;;;;1.17;1.07;;;9.50;96.60;;;;;;5065967;28;20538;-67
2022/04/10 04:04:30;;;;;;;1.27;1.10;;;9.50;96.60;;;;;;5053858;28;21068;-67
2022/04/10 04:06:58;;;;;;;1.40;1.30;;;9.50;96.80;;;;;;5044647;28;20442;-67
2022/04/10 04:09:28;;;;;;;1.10;1.00;;;9.40;96.50;;;;;;5032569;28;20984;-67
2022/04/10 04:11:58;;;;;;;1.58;1.48;;;9.40;96.40;;;;;;5037984;28;20461;-66
2022/04/10 04:14:26;;;;;;;2.50;1.67;;;9.40;96.40;;;;;;5036273;28;20718;-68
2022/04/10 04:16:54;;;;;;;1.30;1.13;;;9.50;96.50;;;;;;5050384;28;20469;-67
2022/04/10 04:19:23;;;;;;;1.27;1.10;;;9.40;96.50;;;;;;5049753;28;20476;-67
2022/04/10 04:21:51;;;;;;;2.05;1.55;;;9.40;96.60;;;;;;5047210;28;20487;-66
2022/04/10 04:24:20;;;;;;;1.15;1.05;;;9.40;96.70;;;;;;5028475;28;20260;-67
2022/04/10 04:26:48;;;;;;;1.50;1.40;;;9.40;96.60;;;;;;5035635;28;20193;-66
2022/04/10 04:29:18;;;;;;;3.20;1.40;;;9.40;96.50;;;;;;5042325;28;21007;-67
2022/04/10 04:31:47;;;;;;;1.20;1.10;;;9.40;96.70;;;;;;5030303;28;20441;-66
2022/04/10 04:34:15;;;;;;;1.37;1.13;;;9.40;96.80;;;;;;5058955;28;20474;-67
2022/04/10 04:36:44;;;;;;;0.90;0.90;;;9.40;96.80;;;;;;5033103;28;20502;-68
2022/04/10 04:39:13;;;;;;;1.93;1.10;;;9.40;96.80;;;;;;5060188;28;20485;-66
2022/04/10 04:41:48;;;;;;;1.20;0.90;;;9.40;96.70;;;;;;5053015;28;20932;-67
2022/04/10 04:44:18;;;;;;;0.90;0.80;;;9.40;96.70;;;;;;5042929;28;20886;-66
2022/04/10 04:46:46;;;;;;;2.60;1.03;;;9.40;96.80;;;;;;5037490;28;20188;-67
2022/04/10 04:49:14;;;;;;;1.20;1.00;;;9.40;96.80;;;;;;5053009;28;20468;-67
2022/04/10 04:51:42;;;;;;;0.88;0.85;;;9.40;96.80;;;;;;5050983;28;20434;-67
2022/04/10 04:54:11;;;;;;;1.03;0.97;;;9.40;96.90;;;;;;5039312;28;20250;-68
2022/04/10 04:56:41;;;;;;;0.90;0.70;;;9.40;96.90;;;;;;5043727;28;20514;-67
2022/04/10 04:59:09;;;;;;;0.98;0.98;;;9.40;96.90;;;;;;5033754;28;20487;-66
2022/04/10 05:01:41;;;;;;;1.00;1.00;;;9.40;96.80;;;;;;5066174;28;20626;-67
2022/04/10 05:04:10;;;;;;;1.37;1.23;;;9.40;96.80;;;;;;5032823;28;20653;-67
2022/04/10 05:06:39;;;;;;;1.10;1.10;;;9.40;96.70;;;;;;5064392;28;20437;-67
2022/04/10 05:09:07;;;;;;;1.30;1.15;;;9.40;96.70;;;;;;5030365;28;20842;-66
2022/04/10 05:11:35;;;;;;;1.50;0.80;;;9.40;96.90;;;;;;5047924;28;20200;-68
2022/04/10 05:14:05;;;;;;;1.30;0.90;;;9.40;96.90;;;;;;5032761;28;21001;-67
2022/04/10 05:16:33;;;;;;;1.00;0.90;;;9.40;96.90;;;;;;5033970;28;20288;-67
2022/04/10 05:19:04;;;;;;;1.83;0.97;;;9.40;97.00;;;;;;5036825;28;20669;-66
2022/04/10 05:21:34;;;;;;;1.97;1.50;;;9.30;97.00;;;;;;5038141;28;20452;-66
2022/04/10 05:24:02;;;;;;;0.90;0.80;;;9.30;97.00;;;;;;5028148;28;20865;-66
2022/04/10 05:26:30;;;;;;;2.00;0.88;;;9.40;97.00;;;;;;5022474;28;20446;-67
2022/04/10 05:29:01;;;;;;;1.65;0.95;;;9.30;96.90;;;;;;5045629;28;20551;-66
2022/04/10 05:31:31;;;;;;;1.25;0.85;;;9.30;96.90;;;;;;5039744;28;22097;-66
2022/04/10 05:34:01;;;;;;;1.30;1.20;;;9.40;97.00;;;;;;5033501;28;20230;-68
2022/04/10 05:36:31;;;;;;;1.40;0.97;;;9.30;97.00;;;;;;5036935;28;20917;-67
2022/04/10 05:38:59;;;;;;;1.13;1.03;;;9.30;97.00;;;;;;5054291;28;20471;-65
2022/04/10 05:41:30;;;;;;;0.80;0.80;;;9.30;96.90;;;;;;5033159;28;20472;-67
2022/04/10 05:44:04;;;;;;;1.35;1.25;;;9.30;96.90;;;;;;5048745;28;20293;-67
2022/04/10 05:46:38;;;;;;;1.00;0.90;;;9.30;97.00;;;;;;5033204;28;20217;-67
2022/04/10 05:49:16;;;;;;;0.80;0.73;;;9.30;96.90;;;;;;5031930;28;20555;-66
2022/04/10 05:51:47;;;;;;;1.10;1.00;;;9.30;97.00;;;;;;5012692;28;20490;-65
2022/04/10 05:54:15;;;;;;;1.53;0.70;;;9.30;96.90;;;;;;5012694;28;20235;-67
2022/04/10 05:56:48;;;;;;;1.23;0.80;;;9.30;97.00;;;;;;5056722;28;20450;-67
2022/04/10 05:59:16;;;;;;;2.28;1.10;;;9.30;96.90;;;;;;5063136;28;20474;-67
2022/04/10 06:01:45;;;;;;;1.50;1.23;;;9.30;96.80;;;;;;5039165;28;20192;-67
2022/04/10 06:04:14;;;;;;;1.30;1.10;;;9.30;96.90;;;;;;5032897;28;20231;-67
2022/04/10 06:06:42;;;;;;;1.00;0.80;;;9.30;96.80;;;;;;5031935;28;20197;-67
2022/04/10 06:09:25;;;;;;;2.40;0.93;;;9.30;96.90;;;;;;5062661;28;20241;-67
2022/04/10 06:11:53;;;;;;;1.17;1.00;;;9.20;96.90;;;;;;5031445;28;20193;-67
2022/04/10 06:14:23;;;;;;;1.52;1.30;;;9.30;97.40;;;;;;5047764;28;20600;-67
2022/04/10 06:16:51;;;;;;;1.50;1.40;;;9.30;96.80;;;;;;5049866;28;20195;-66
2022/04/10 06:19:23;;;;;;;3.80;2.70;;;9.30;96.80;;;;;;5023617;28;20217;-68
2022/04/10 06:21:52;;;;;;;1.98;1.38;;;9.20;96.70;;;;;;5039031;28;20589;-67
2022/04/10 06:24:21;;;;;;;1.15;1.05;;;9.20;96.70;;;;;;5026060;28;20354;-67
2022/04/10 06:26:51;;;;;;;1.95;1.73;;;9.20;96.70;;;;;;5028047;28;20192;-67
2022/04/10 06:29:22;;;;;;;1.83;1.17;;;9.20;96.80;;;;;;5046435;28;20219;-65
2022/04/10 06:31:56;;;;;;;2.67;1.42;;;9.20;96.80;;;;;;5030531;28;20281;-66
2022/04/10 06:34:27;;;;;;;2.60;1.52;;;9.20;96.80;;;;;;5034452;28;20230;-69
2022/04/10 06:36:57;;;;;;;2.38;1.67;;;9.20;96.80;;;;;;5050788;28;20187;-68
2022/04/10 06:39:26;;;;;;;2.40;1.38;;;9.20;96.80;;;;;;5029701;28;20271;-68
2022/04/10 06:41:57;;;;;;;1.50;1.40;;;9.20;96.80;;;;;;5051283;28;20193;-68
2022/04/10 06:44:52;;;;;;;2.05;1.63;;;9.20;96.90;;;;;;5028703;28;20721;-67
2022/04/10 06:47:40;;;;;;;2.10;1.90;;;9.20;96.80;;;;;;5027410;28;20188;-69
2022/04/10 06:50:08;;;;;;;2.80;2.33;;;9.20;96.80;;;;;;5045771;28;20760;-69
2022/04/10 06:52:36;;;;;;;1.50;1.20;;;9.20;96.70;;;;;;5031106;28;20798;-67
2022/04/10 06:55:06;;;;;;;1.55;1.23;;;9.20;96.70;;;;;;5029709;28;20647;-67
2022/04/10 06:57:35;;;;;;;1.35;1.10;;;9.20;96.80;;;;;;5030687;28;20302;-67
2022/04/10 07:00:05;;;;;;;1.70;1.60;;;9.20;96.80;;;;;;5042697;28;20282;-67
2022/04/10 07:02:35;;;;;;;1.30;1.10;;;9.20;96.80;;;;;;5036569;28;20279;-68
2022/04/10 07:05:05;;;;;;;2.53;1.20;;;9.20;96.80;;;;;;5050061;28;20251;-67
2022/04/10 07:07:36;;;;;;;1.17;0.95;;;9.20;96.90;;;;;;5050143;28;20196;-67
2022/04/10 07:10:05;;;;;;;1.67;0.90;;;9.20;96.90;;;;;;5027100;28;20230;-68
2022/04/10 07:12:35;;;;;;;1.33;1.15;;;9.20;96.90;;;;;;5027590;28;20692;-68
2022/04/10 07:15:04;;;;;;;1.50;1.10;;;9.20;97.40;;;;;;5030033;28;20309;-67
2022/04/10 07:17:32;;;;;;;1.10;0.88;;;9.20;96.90;;;;;;5020239;28;20328;-67
2022/04/10 07:20:06;;;;;;;0.70;0.70;;;9.30;96.90;;;;;;5010653;28;20262;-67
2022/04/10 07:25:21;;;;;;;1.17;0.85;;;9.30;96.90;;;;;;5018691;28;20217;-66
2022/04/10 07:27:50;;;;;;;1.48;1.10;;;9.20;96.80;;;;;;5031853;28;20193;-67
2022/04/10 07:30:30;;;;;;;3.55;1.30;;;9.30;96.80;;;;;;5033270;28;20213;-67
2022/04/10 07:33:04;;;;;;;1.13;1.02;;;9.30;96.80;;;;;;5041598;28;20234;-67
2022/04/10 07:35:42;;;;;;;1.90;1.65;;;9.30;96.80;;;;;;5050094;28;20190;-66
2022/04/10 07:38:17;;;;;;;1.40;0.90;;;9.30;96.70;;;;;;5034536;28;20719;-67
2022/04/10 07:40:46;;;;;;;3.73;0.90;;;9.30;96.70;;;;;;5010902;28;20428;-66
2022/04/10 07:43:23;;;;;;;1.30;1.20;;;9.30;96.70;;;;;;5028353;28;20821;-67
2022/04/10 07:49:03;;;;;;;3.03;1.20;;;9.30;96.70;;;;;;5034488;28;20224;-67
2022/04/10 07:51:37;;;;;;;1.50;1.40;;;9.30;97.20;;;;;;5041594;28;20193;-66
2022/04/10 07:54:12;;;;;;;1.83;1.35;;;9.30;96.70;;;;;;5025362;28;20241;-66
2022/04/10 07:56:41;;;;;;;1.58;1.00;;;9.30;96.70;;;;;;5048432;28;20192;-67
2022/04/10 07:59:13;;;;;;;1.35;1.20;;;9.30;96.70;;;;;;5038511;28;20222;-68
2022/04/10 08:01:42;;;;;;;2.03;1.00;;;9.30;96.70;;;;;;5032433;28;20244;-65
2022/04/10 08:04:17;;;;;;;1.25;1.10;;;9.30;96.60;;;;;;5030603;28;20316;-67
2022/04/10 08:07:12;;;;;;;2.67;1.53;;;9.30;96.60;;;;;;5043790;28;20206;-68
2022/04/10 08:09:42;;;;;;;2.05;1.70;;;9.30;96.60;;;;;;5020852;28;20474;-67
2022/04/10 08:12:10;;;;;;;1.43;1.13;;;9.30;96.60;;;;;;5051605;28;20248;-66
2022/04/10 08:14:40;;;;;;;1.30;1.20;;;9.30;96.60;;;;;;5037674;28;20560;-68
2022/04/10 08:17:11;;;;;;;1.57;1.30;;;9.30;96.60;;;;;;5033738;28;20224;-67
2022/04/10 08:19:39;;;;;;;1.30;1.20;;;9.40;96.60;;;;;;5045364;28;20520;-66
2022/04/10 08:22:07;;;;;;;1.17;1.07;;;9.30;96.50;;;;;;5037756;28;20485;-67
2022/04/10 08:24:35;;;;;;;1.47;1.13;;;9.30;96.50;;;;;;5028922;28;20480;-66
2022/04/10 08:27:04;;;;;;;1.05;0.95;;;9.40;96.50;;;;;;5028624;28;20441;-67
2022/04/10 08:29:33;;;;;;;2.42;1.60;;;9.40;96.50;;;;;;5034283;28;20219;-68
2022/04/10 08:32:02;;;;;;;2.00;1.13;;;9.40;96.50;;;;;;5024720;28;20749;-69
2022/04/10 08:34:31;;;;;;;1.73;1.15;;;9.30;96.50;;;;;;5053994;28;20472;-68
2022/04/10 08:37:03;;;;;;;1.77;1.35;;;9.40;96.50;;;;;;5037684;28;20659;-67
2022/04/10 08:39:32;;;;;;;1.25;1.15;;;9.40;96.40;;;;;;5020574;28;20661;-68
2022/04/10 08:42:03;;;;;;;1.80;0.80;;;9.30;96.40;;;;;;5046684;28;20184;-67
2022/04/10 08:44:36;;;;;;;1.77;1.40;;;9.40;96.40;;;;;;5050980;28;20238;-67
2022/04/10 08:47:06;;;;;;;3.30;1.30;;;9.30;96.40;;;;;;5020578;28;20452;-67
2022/04/10 08:49:35;;;;;;;1.40;1.30;;;9.30;96.40;;;;;;5023573;28;20464;-67
2022/04/10 08:52:03;;;;;;;2.33;1.00;;;9.30;96.40;;;;;;5034504;28;20194;-67
2022/04/10 08:54:34;;;;;;;1.60;1.00;;;9.40;96.50;;;;;;5021192;28;20472;-67
2022/04/10 08:57:03;;;;;;;1.33;1.10;;;9.30;96.40;;;;;;5034103;28;20426;-66
2022/04/10 08:59:31;;;;;;;2.10;1.50;;;9.30;96.40;;;;;;5033604;28;20828;-67
2022/04/10 09:01:59;;;;;;;4.93;1.55;;;9.40;96.40;;;;;;5025632;28;20857;-67
2022/04/10 09:04:28;;;;;;;1.27;1.10;;;9.40;96.40;;;;;;5013496;28;20230;-67
2022/04/10 09:06:58;;;;;;;1.58;1.48;;;9.30;96.30;;;;;;5014915;28;20739;-66
2022/04/10 09:09:26;;;;;;;4.07;1.42;;;9.40;96.40;;;;;;5025736;28;20243;-68
2022/04/10 09:11:55;;;;;;;1.55;1.30;;;9.40;96.30;;;;;;5014386;28;20203;-68
2022/04/10 09:14:24;;;;;;;1.50;1.10;;;9.30;96.30;;;;;;5052303;28;20610;-67
2022/04/10 09:17:10;;;;;;;1.40;1.27;;;9.30;96.30;;;;;;5040429;28;20563;-67
2022/04/10 09:19:41;;;;;;;1.50;1.40;;;9.30;96.40;;;;;;5021675;28;20276;-67
2022/04/10 09:22:24;;;;;;;1.27;1.17;;;9.30;96.30;;;;;;5047349;28;20288;-67
2022/04/10 09:25:11;;;;;;;1.77;1.10;;;9.40;96.40;;;;;;5035637;28;20625;-68
2022/04/10 09:27:40;;;;;;;1.73;1.23;;;9.30;96.30;;;;;;5053592;28;20186;-67
2022/04/10 09:30:10;;;;;;;1.33;1.10;;;9.40;96.40;;;;;;5043546;28;20215;-67
2022/04/10 09:32:40;;;;;;;1.65;1.55;;;9.30;96.40;;;;;;5026310;28;20658;-67
2022/04/10 09:35:11;;;;;;;1.23;1.10;;;9.30;96.30;;;;;;5032954;28;20223;-68
2022/04/10 09:37:44;;;;;;;1.60;1.30;;;9.40;96.20;;;;;;5053742;28;20204;-69
2022/04/10 09:40:29;;;;;;;1.40;1.30;;;9.40;96.20;;;;;;5031843;28;20474;-68
2022/04/10 09:42:59;;;;;;;2.13;1.38;;;9.30;96.70;;;;;;5053097;28;20946;-68
2022/04/10 09:45:34;;;;;;;1.43;1.17;;;9.30;96.10;;;;;;5041119;28;20218;-66
2022/04/10 09:48:22;;;;;;;2.03;1.50;;;9.30;96.30;;;;;;5036370;28;20450;-67
2022/04/10 09:50:53;;;;;;;1.43;1.00;;;9.40;96.10;;;;;;5031481;28;20431;-66
2022/04/10 09:53:27;;;;;;;2.80;1.40;;;9.40;96.10;;;;;;5028452;28;20462;-67
2022/04/10 09:55:57;;;;;;;3.25;1.95;;;9.30;96.10;;;;;;5012646;28;20424;-66
2022/04/10 09:58:26;;;;;;;1.40;1.00;;;9.30;96.10;;;;;;5042869;28;20592;-67
2022/04/10 10:00:55;;;;;;;3.42;1.80;;;9.40;96.10;;;;;;5047584;28;20252;-67
2022/04/10 10:03:28;;;;;;;1.50;1.13;;;9.30;96.10;;;;;;5044529;28;20305;-67
2022/04/10 10:05:58;;;;;;;1.57;1.27;;;9.30;96.20;;;;;;5052827;28;20487;-68
2022/04/10 10:08:28;;;;;;;1.53;1.40;;;9.30;96.20;;;;;;5037001;28;20523;-67
2022/04/10 10:10:57;;;;;;;1.55;1.40;;;9.40;96.30;;;;;;5032700;28;20426;-65
2022/04/10 10:13:27;;;;;;;1.53;1.03;;;9.30;96.30;;;;;;5031715;28;20251;-66
2022/04/10 10:15:56;;;;;;;1.50;1.40;;;9.30;96.30;;;;;;5031716;28;20436;-67
2022/04/10 10:18:26;;;;;;;1.80;1.47;;;9.40;96.30;;;;;;5026809;28;20456;-67
2022/04/10 10:20:54;;;;;;;1.17;1.07;;;9.40;96.30;;;;;;5037949;28;20881;-67
2022/04/10 10:23:26;;;;;;;2.70;1.17;;;9.40;96.20;;;;;;5027033;28;20881;-67
2022/04/10 10:26:05;;;;;;;2.90;1.40;;;9.40;96.30;;;;;;5031834;28;20447;-67
2022/04/10 10:29:00;;;;;;;2.87;2.63;;;9.40;96.30;;;;;;5031893;28;20522;-67
2022/04/10 10:31:39;;;;;;;1.67;1.30;;;9.40;96.20;;;;;;5012933;28;20510;-67
2022/04/10 10:34:09;;;;;;;2.37;1.17;;;9.40;96.10;;;;;;5014710;28;20461;-66
2022/04/10 10:36:38;;;;;;;1.90;1.30;;;9.40;96.10;;;;;;5052023;28;20429;-67
2022/04/10 10:39:08;;;;;;;3.37;1.80;;;9.40;96.10;;;;;;5039170;28;20466;-67
2022/04/10 10:41:38;;;;;;;3.13;1.10;;;9.40;96.10;;;;;;5051420;28;20464;-67
2022/04/10 10:44:18;;;;;;;1.63;1.00;;;9.40;96.20;;;;;;5031392;28;20984;-65
2022/04/10 10:46:58;;;;;;;1.33;1.13;;;9.40;96.20;;;;;;5029197;28;20501;-67
2022/04/10 10:49:28;;;;;;;1.43;0.97;;;9.40;96.20;;;;;;5050273;28;20827;-67
2022/04/10 10:52:09;;;;;;;1.27;1.07;;;9.40;96.20;;;;;;5046117;28;20442;-66
2022/04/10 10:54:44;;;;;;;5.97;1.30;;;9.40;96.20;;;;;;5035980;28;20565;-67
2022/04/10 10:57:31;;;;;;;1.47;1.17;;;9.40;96.20;;;;;;5031926;28;20196;-67
2022/04/10 11:00:16;;;;;;;1.40;1.27;;;9.40;96.10;;;;;;5043218;28;20475;-67
2022/04/10 11:02:50;;;;;;;1.50;1.40;;;9.40;96.10;;;;;;5015847;28;20538;-67
2022/04/10 11:05:35;;;;;;;1.77;1.20;;;9.40;96.10;;;;;;5027108;28;20481;-69
2022/04/10 11:08:06;;;;;;;1.60;1.50;;;9.40;96.50;;;;;;5028945;28;20326;-67
2022/04/10 11:10:39;;;;;;;1.70;1.33;;;9.40;96.10;;;;;;5017225;28;20720;-69
2022/04/10 11:13:08;;;;;;;1.40;1.30;;;9.40;96.10;;;;;;5031310;28;20267;-67
2022/04/10 11:15:48;;;;;;;1.42;1.33;;;9.40;96.10;;;;;;5063630;28;20522;-67
2022/04/10 11:18:35;;;;;;;1.58;0.90;;;9.40;96.10;;;;;;5028605;28;21992;-67
2022/04/10 11:21:10;;;;;;;1.30;1.10;;;9.40;96.10;;;;;;5046522;28;20242;-67
2022/04/10 11:23:49;;;;;;;1.47;1.13;;;9.40;96.10;;;;;;5033586;28;20456;-67
2022/04/10 11:26:20;;;;;;;1.37;1.27;;;9.40;96.00;;;;;;5031585;28;20458;-66
2022/04/10 11:28:56;;;;;;;1.97;1.50;;;9.40;96.10;;;;;;5031237;28;20513;-67
2022/04/10 11:31:35;;;;;;;1.73;1.20;;;9.40;96.10;;;;;;5029947;28;20948;-68
2022/04/10 11:34:10;;;;;;;1.57;0.80;;;9.40;96.10;;;;;;5024677;28;20531;-67
2022/04/10 11:36:52;;;;;;;1.20;1.10;;;9.50;96.10;;;;;;5039182;28;20430;-67
2022/04/10 11:39:28;;;;;;;1.53;1.43;;;9.40;96.10;;;;;;5025188;28;20468;-67
2022/04/10 11:42:00;;;;;;;1.67;1.07;;;9.40;96.10;;;;;;5040128;28;20435;-67
2022/04/10 11:44:29;;;;;;;1.95;1.30;;;9.40;96.10;;;;;;5036577;28;20481;-66
2022/04/10 11:47:00;;;;;;;1.43;1.03;;;9.40;96.50;;;;;;5023996;28;20192;-67
2022/04/10 11:49:28;;;;;;;1.10;1.00;;;9.50;96.10;;;;;;5041214;28;20501;-67
2022/04/10 11:51:58;;;;;;;1.35;1.23;;;9.40;95.90;;;;;;5038001;28;20431;-67
2022/04/10 11:54:27;;;;;;;3.60;1.42;;;9.50;95.90;;;;;;5022327;28;20233;-67
2022/04/10 11:56:56;;;;;;;2.23;1.07;;;9.50;96.00;;;;;;5035764;28;20277;-66
2022/04/10 11:59:25;;;;;;;1.70;1.20;;;9.50;95.90;;;;;;5037563;28;21010;-67
2022/04/10 12:01:54;;;;;;;1.37;0.80;;;9.50;95.80;;;;;;5034227;28;20221;-67
2022/04/10 12:04:23;;;;;;;1.38;1.27;;;9.50;96.00;;;;;;5047846;28;20493;-67
2022/04/10 12:06:51;;;;;;;1.63;1.30;;;9.50;96.00;;;;;;5040778;28;20243;-68
2022/04/10 12:09:19;;;;;;;1.63;1.33;;;9.50;96.00;;;;;;5024086;28;20523;-67
2022/04/10 12:11:48;;;;;;;1.57;1.47;;;9.50;96.00;;;;;;5032571;28;20446;-68
2022/04/10 12:14:18;;;;;;;1.20;1.10;;;9.50;96.00;;;;;;5049791;28;20477;-67
2022/04/10 12:16:47;;;;;;;2.17;1.20;;;9.50;95.80;;;;;;5027116;28;20438;-67
2022/04/10 12:19:15;;;;;;;1.88;1.30;;;9.50;95.90;;;;;;5028674;28;20452;-66
2022/04/10 12:21:49;;;;;;;1.30;1.20;;;9.50;95.80;;;;;;5051518;28;20578;-67
2022/04/10 12:24:21;;;;;;;1.50;1.40;;;9.50;95.80;;;;;;5038327;28;20612;-66
2022/04/10 12:26:50;;;;;;;1.50;1.40;;;9.50;95.90;;;;;;5052772;28;20187;-68
2022/04/10 12:29:19;;;;;;;1.43;1.33;;;9.50;95.80;;;;;;5020559;28;20221;-68
2022/04/10 12:31:54;;;;;;;1.50;1.40;;;9.50;96.00;;;;;;5044898;28;20446;-66
2022/04/10 12:34:22;;;;;;;1.97;1.43;;;9.60;96.00;;;;;;5047740;28;20466;-67
2022/04/10 12:36:52;;;;;;;1.90;1.20;;;9.60;95.90;;;;;;5046981;28;20434;-66
2022/04/10 12:39:25;;;;;;;1.50;1.40;;;9.60;95.90;;;;;;5021134;28;20498;-68
2022/04/10 12:42:01;;;;;;;1.30;1.20;;;9.60;95.90;;;;;;5017517;28;20452;-68
2022/04/10 12:44:29;;;;;;;1.77;1.53;;;9.60;95.90;;;;;;5032689;28;20517;-67
2022/04/10 12:46:58;;;;;;;1.50;1.30;;;9.60;95.90;;;;;;5031746;28;20482;-67
2022/04/10 12:49:27;;;;;;;1.70;1.40;;;9.60;96.00;;;;;;5013927;28;20454;-67
2022/04/10 12:51:59;;;;;;;1.50;1.33;;;9.60;96.00;;;;;;5044007;28;20480;-67
2022/04/10 12:54:35;;;;;;;1.73;1.50;;;9.60;96.00;;;;;;5026144;28;20973;-67
2022/04/10 12:57:04;;;;;;;1.77;1.20;;;9.60;95.90;;;;;;5021301;28;20500;-68
2022/04/10 12:59:46;;;;;;;2.13;1.10;;;9.60;95.90;;;;;;5040368;28;21011;-67
2022/04/10 13:02:27;;;;;;;1.67;1.10;;;9.60;95.90;;;;;;5037204;28;20468;-67
2022/04/10 13:04:57;;;;;;;1.57;1.07;;;9.60;95.90;;;;;;5045546;28;20890;-68
2022/04/10 13:07:26;;;;;;;2.03;1.83;;;9.60;95.80;;;;;;5035969;28;20444;-68
2022/04/10 13:10:05;;;;;;;1.60;1.50;;;9.60;95.70;;;;;;5026656;28;20460;-67
2022/04/10 13:12:40;;;;;;;1.60;1.50;;;9.60;95.80;;;;;;5049660;28;20445;-66
2022/04/10 13:15:09;;;;;;;2.07;1.60;;;9.60;95.80;;;;;;5021211;28;20463;-68
2022/04/10 13:17:41;;;;;;;2.00;1.10;;;9.70;95.90;;;;;;5028662;28;20443;-67
2022/04/10 13:20:11;;;;;;;1.93;1.20;;;9.70;95.90;;;;;;5045334;28;20470;-66
2022/04/10 13:22:41;;;;;;;1.70;1.47;;;9.70;95.90;;;;;;5037345;28;20885;-66
2022/04/10 13:25:11;;;;;;;1.50;1.40;;;9.70;95.90;;;;;;5027873;28;20464;-67